createdAt,value
2018-02-25T00:02:30.309Z,6.92
2018-02-25T00:05:00.342Z,10.60
2018-02-25T00:07:31.828Z,8.03
2018-02-25T00:10:01.623Z,9.13
2018-02-25T00:12:32.428Z,8.04
2018-02-25T00:15:01.712Z,7.70
2018-02-25T00:17:31.910Z,7.90
2018-02-25T00:20:01.389Z,7.65
2018-02-25T00:22:30.983Z,7.43
2018-02-25T00:25:04.282Z,7.15
2018-02-25T00:27:34.660Z,8.30
2018-02-25T00:30:05.009Z,8.32
2018-02-25T00:32:35.732Z,7.47
2018-02-25T00:35:08.841Z,9.02
2018-02-25T00:37:39.407Z,8.65
2018-02-25T00:40:10.029Z,7.28
2018-02-25T00:42:40.349Z,8.07
2018-02-25T00:45:11.859Z,7.15
2018-02-25T00:47:43.847Z,7.69
2018-02-25T00:50:13.324Z,8.05
2018-02-25T00:52:42.837Z,7.95
2018-02-25T00:55:15.838Z,8.23
2018-02-25T00:57:45.215Z,8.90
2018-02-25T01:00:15.891Z,9.65
2018-02-25T01:02:45.447Z,7.90
2018-02-25T01:05:15.650Z,8.87
2018-02-25T01:07:49.081Z,7.77
2018-02-25T01:10:18.460Z,8.13
2018-02-25T01:12:48.464Z,8.32
2018-02-25T01:15:19.239Z,8.88
2018-02-25T01:17:48.537Z,7.47
2018-02-25T01:20:22.239Z,8.23
2018-02-25T01:22:53.219Z,8.12
2018-02-25T01:25:24.699Z,7.77
2018-02-25T01:27:56.414Z,7.76
2018-02-25T01:30:30.438Z,7.89
2018-02-25T01:32:59.988Z,8.23
2018-02-25T01:35:30.791Z,8.00
2018-02-25T01:38:00.068Z,6.82
2018-02-25T01:40:29.688Z,7.90
2018-02-25T01:43:02.692Z,8.48
2018-02-25T01:45:32.013Z,7.96
2018-02-25T01:48:01.899Z,8.48
2018-02-25T01:53:32.883Z,8.35
2018-02-25T01:56:02.018Z,8.17
2018-02-25T01:58:31.114Z,8.20
2018-02-25T02:01:00.293Z,8.43
2018-02-25T02:03:29.845Z,14.00
2018-02-25T02:05:58.996Z,12.95
2018-02-25T02:08:27.793Z,8.63
2018-02-25T02:10:57.022Z,8.68
2018-02-25T02:13:26.409Z,8.82
2018-02-25T02:15:55.479Z,7.97
2018-02-25T02:18:24.843Z,8.57
2018-02-25T02:20:53.884Z,8.80
2018-02-25T02:23:23.193Z,8.55
2018-02-25T02:25:52.674Z,8.25
2018-02-25T02:28:22.147Z,8.13
2018-02-25T02:30:51.334Z,8.45
2018-02-25T02:33:20.677Z,8.50
2018-02-25T02:35:49.829Z,8.25
2018-02-25T02:40:59.281Z,8.53
2018-02-25T02:43:28.633Z,9.15
2018-02-25T02:45:57.812Z,9.18
2018-02-25T02:48:27.143Z,9.45
2018-02-25T02:50:56.368Z,8.07
2018-02-25T02:53:26.480Z,9.57
2018-02-25T02:55:57.864Z,8.83
2018-02-25T02:58:28.500Z,9.17
2018-02-25T03:00:57.645Z,9.25
2018-02-25T03:03:26.976Z,9.54
2018-02-25T03:05:56.632Z,9.57
2018-02-25T03:08:25.885Z,12.40
2018-02-25T03:10:57.746Z,15.88
2018-02-25T03:13:28.640Z,14.50
2018-02-25T03:15:59.966Z,15.20
2018-02-25T03:18:33.121Z,14.94
2018-02-25T03:21:02.551Z,12.98
2018-02-25T03:23:31.783Z,12.35
2018-02-25T03:26:03.076Z,12.10
2018-02-25T03:28:36.902Z,13.82
2018-02-25T03:31:07.684Z,12.36
2018-02-25T03:33:37.160Z,10.40
2018-02-25T03:36:06.874Z,10.35
2018-02-25T03:38:37.165Z,11.06
2018-02-25T03:41:11.684Z,11.71
2018-02-25T03:43:43.689Z,12.76
2018-02-25T03:46:13.375Z,12.18
2018-02-25T03:48:42.924Z,11.60
2018-02-25T03:51:14.521Z,10.77
2018-02-25T03:53:45.353Z,11.20
2018-02-25T03:56:14.530Z,10.77
2018-02-25T03:58:43.974Z,12.63
2018-02-25T04:01:14.786Z,11.84
2018-02-25T04:03:44.253Z,11.45
2018-02-25T04:06:16.010Z,11.55
2018-02-25T04:08:45.891Z,11.07
2018-02-25T04:11:17.405Z,11.66
2018-02-25T04:13:47.109Z,11.55
2018-02-25T04:16:18.484Z,12.00
2018-02-25T04:18:48.263Z,11.38
2018-02-25T04:21:20.983Z,12.18
2018-02-25T04:23:52.599Z,11.45
2018-02-25T04:26:23.048Z,11.28
2018-02-25T04:28:56.421Z,11.61
2018-02-25T04:31:25.915Z,12.73
2018-02-25T04:33:57.279Z,11.88
2018-02-25T04:36:27.750Z,12.15
2018-02-25T04:38:59.042Z,11.40
2018-02-25T04:41:30.314Z,10.70
2018-02-25T04:43:59.387Z,10.40
2018-02-25T04:46:30.053Z,10.40
2018-02-25T04:48:59.848Z,11.40
2018-02-25T04:51:30.848Z,12.25
2018-02-25T04:54:02.848Z,13.62
2018-02-25T04:56:32.381Z,13.38
2018-02-25T04:59:05.443Z,14.63
2018-02-25T05:01:35.908Z,14.00
2018-02-25T05:04:05.067Z,12.93
2018-02-25T05:06:37.988Z,11.95
2018-02-25T05:09:08.293Z,11.70
2018-02-25T05:11:37.992Z,10.63
2018-02-25T05:14:08.582Z,10.47
2018-02-25T05:16:39.604Z,9.95
2018-02-25T05:19:10.402Z,10.56
2018-02-25T05:21:40.425Z,11.95
2018-02-25T05:24:12.915Z,12.34
2018-02-25T05:26:44.578Z,12.65
2018-02-25T05:29:13.832Z,13.77
2018-02-25T05:31:47.974Z,11.00
2018-02-25T05:34:18.137Z,12.00
2018-02-25T05:36:48.047Z,13.68
2018-02-25T05:39:17.341Z,10.76
2018-02-25T05:41:50.639Z,12.61
2018-02-25T05:44:20.923Z,11.20
2018-02-25T05:46:51.750Z,9.45
2018-02-25T05:49:21.013Z,9.53
2018-02-25T05:51:51.233Z,10.08
2018-02-25T05:54:22.857Z,8.95
2018-02-25T05:56:53.544Z,9.32
2018-02-25T05:59:24.290Z,10.98
2018-02-25T06:01:54.649Z,17.33
2018-02-25T06:04:25.171Z,18.02
2018-02-25T06:06:55.533Z,18.60
2018-02-25T06:09:27.110Z,13.35
2018-02-25T06:11:59.380Z,12.72
2018-02-25T06:14:30.499Z,12.73
2018-02-25T06:17:02.264Z,13.82
2018-02-25T06:19:32.496Z,13.95
2018-02-25T06:22:06.644Z,13.26
2018-02-25T06:24:36.249Z,12.40
2018-02-25T06:27:05.191Z,13.38
2018-02-25T06:29:34.914Z,13.62
2018-02-25T06:32:06.135Z,17.44
2018-02-25T06:34:37.156Z,17.35
2018-02-25T06:37:07.828Z,19.42
2018-02-25T06:39:39.720Z,18.10
2018-02-25T06:42:10.604Z,18.12
2018-02-25T06:44:41.536Z,18.16
2018-02-25T06:47:12.157Z,15.88
2018-02-25T06:49:42.110Z,16.80
2018-02-25T06:52:13.368Z,12.35
2018-02-25T06:54:44.614Z,13.90
2018-02-25T06:57:15.605Z,21.98
2018-02-25T06:59:46.030Z,24.87
2018-02-25T07:02:16.920Z,21.95
2018-02-25T07:04:47.604Z,16.55
2018-02-25T07:07:18.023Z,11.70
2018-02-25T07:09:51.091Z,16.68
2018-02-25T07:12:20.826Z,17.10
2018-02-25T07:14:52.477Z,18.60
2018-02-25T07:17:23.406Z,19.20
2018-02-25T07:19:53.954Z,18.15
2018-02-25T07:22:26.406Z,22.15
2018-02-25T07:24:55.696Z,16.15
2018-02-25T07:27:27.793Z,12.48
2018-02-25T07:29:57.123Z,20.70
2018-02-25T07:32:28.279Z,16.80
2018-02-25T07:35:01.316Z,10.41
2018-02-25T07:37:30.770Z,10.40
2018-02-25T07:40:00.397Z,9.06
2018-02-25T07:42:32.138Z,10.25
2018-02-25T07:45:02.826Z,10.75
2018-02-25T07:47:33.592Z,12.65
2018-02-25T07:50:02.928Z,12.98
2018-02-25T07:52:33.786Z,14.24
2018-02-25T07:55:04.294Z,11.07
2018-02-25T07:57:35.588Z,11.38
2018-02-25T08:00:05.290Z,11.95
2018-02-25T08:02:36.079Z,12.30
2018-02-25T08:05:06.280Z,12.50
2018-02-25T08:07:37.678Z,12.80
2018-02-25T08:10:08.567Z,14.07
2018-02-25T08:12:39.665Z,24.40
2018-02-25T08:15:10.396Z,26.92
2018-02-25T08:17:43.368Z,23.45
2018-02-25T08:20:15.047Z,17.02
2018-02-25T08:22:49.484Z,12.49
2018-02-25T08:25:18.644Z,9.76
2018-02-25T08:27:49.454Z,10.02
2018-02-25T08:30:19.968Z,10.00
2018-02-25T08:32:50.553Z,11.35
2018-02-25T08:35:22.095Z,9.02
2018-02-25T08:37:52.573Z,8.65
2018-02-25T08:40:22.599Z,9.48
2018-02-25T08:42:53.058Z,8.40
2018-02-25T08:45:23.698Z,9.38
2018-02-25T08:47:56.057Z,11.72
2018-02-25T08:50:25.540Z,8.80
2018-02-25T08:52:56.179Z,10.50
2018-02-25T08:55:26.442Z,11.40
2018-02-25T08:57:58.194Z,10.25
2018-02-25T09:00:27.883Z,9.20
2018-02-25T09:02:58.889Z,10.98
2018-02-25T09:05:28.869Z,17.05
2018-02-25T09:07:59.866Z,16.70
2018-02-25T09:10:31.492Z,11.58
2018-02-25T09:13:06.088Z,12.41
2018-02-25T09:15:35.216Z,11.88
2018-02-25T09:18:04.300Z,11.37
2018-02-25T09:20:34.001Z,12.20
2018-02-25T09:23:03.872Z,12.56
2018-02-25T09:25:35.655Z,12.32
2018-02-25T09:28:06.748Z,12.05
2018-02-25T09:30:36.700Z,11.27
2018-02-25T09:33:06.306Z,11.80
2018-02-25T09:35:37.168Z,14.30
2018-02-25T09:38:08.627Z,17.96
2018-02-25T09:40:39.896Z,12.65
2018-02-25T09:43:12.297Z,11.78
2018-02-25T09:45:41.840Z,14.20
2018-02-25T09:48:12.289Z,11.48
2018-02-25T09:50:43.428Z,12.95
2018-02-25T09:53:13.849Z,10.73
2018-02-25T09:55:45.238Z,12.02
2018-02-25T09:58:15.700Z,9.65
2018-02-25T10:00:46.545Z,9.32
2018-02-25T10:03:17.074Z,8.73
2018-02-25T10:05:48.838Z,10.78
2018-02-25T10:08:21.467Z,11.24
2018-02-25T10:10:50.897Z,10.90
2018-02-25T10:13:21.544Z,10.10
2018-02-25T10:15:52.913Z,11.52
2018-02-25T10:18:26.785Z,10.10
2018-02-25T10:20:56.747Z,9.80
2018-02-25T10:23:26.912Z,12.27
2018-02-25T10:25:57.296Z,9.40
2018-02-25T10:28:26.887Z,8.68
2018-02-25T10:30:57.648Z,9.80
2018-02-25T10:33:28.536Z,11.55
2018-02-25T10:35:59.448Z,10.27
2018-02-25T10:38:29.654Z,8.85
2018-02-25T10:41:00.713Z,8.73
2018-02-25T10:43:30.831Z,8.90
2018-02-25T10:46:01.793Z,9.30
2018-02-25T10:48:32.169Z,10.43
2018-02-25T10:51:03.516Z,17.90
2018-02-25T10:53:34.343Z,12.55
2018-02-25T10:56:03.866Z,16.17
2018-02-25T10:58:36.169Z,11.48
2018-02-25T11:01:08.052Z,10.38
2018-02-25T11:03:39.870Z,13.35
2018-02-25T11:06:10.214Z,12.80
2018-02-25T11:08:40.894Z,13.07
2018-02-25T11:11:11.711Z,11.68
2018-02-25T11:13:43.327Z,13.94
2018-02-25T11:16:13.739Z,12.58
2018-02-25T11:18:44.499Z,14.87
2018-02-25T11:21:16.220Z,13.70
2018-02-25T11:23:46.872Z,10.05
2018-02-25T11:26:17.846Z,12.13
2018-02-25T11:28:48.320Z,11.64
2018-02-25T11:31:21.649Z,18.50
2018-02-25T11:33:50.920Z,12.77
2018-02-25T11:36:21.329Z,13.68
2018-02-25T11:38:52.767Z,11.82
2018-02-25T11:41:21.649Z,14.87
2018-02-25T11:43:53.262Z,12.98
2018-02-25T11:46:24.199Z,10.27
2018-02-25T11:48:55.506Z,15.06
2018-02-25T11:51:27.123Z,11.43
2018-02-25T11:53:57.764Z,10.63
2018-02-25T11:56:28.647Z,11.38
2018-02-25T11:58:59.873Z,15.10
2018-02-25T12:01:29.472Z,13.48
2018-02-25T12:04:00.065Z,13.77
2018-02-25T12:06:30.948Z,11.50
2018-02-25T12:09:01.797Z,11.95
2018-02-25T12:11:33.210Z,10.78
2018-02-25T12:14:03.842Z,12.05
2018-02-25T12:16:36.314Z,10.68
2018-02-25T12:19:08.380Z,10.02
2018-02-25T12:21:37.941Z,9.95
2018-02-25T12:24:10.481Z,12.45
2018-02-25T12:26:40.407Z,11.20
2018-02-25T12:29:09.682Z,11.05
2018-02-25T12:31:41.137Z,9.70
2018-02-25T12:34:10.940Z,12.00
2018-02-25T12:36:41.878Z,12.12
2018-02-25T12:39:12.259Z,12.32
2018-02-25T12:41:42.690Z,12.75
2018-02-25T12:44:13.572Z,16.12
2018-02-25T12:46:44.520Z,16.27
2018-02-25T12:49:15.424Z,12.18
2018-02-25T12:51:46.355Z,14.87
2018-02-25T12:54:17.492Z,12.85
2018-02-25T12:56:48.787Z,12.43
2018-02-25T12:59:19.595Z,11.60
2018-02-25T13:01:50.975Z,13.52
2018-02-25T13:04:21.647Z,11.27
2018-02-25T13:06:52.700Z,12.18
2018-02-25T13:09:29.895Z,11.48
2018-02-25T13:11:59.228Z,12.45
2018-02-25T13:14:28.510Z,12.45
2018-02-25T13:16:57.659Z,11.80
2018-02-25T13:19:27.317Z,12.25
2018-02-25T13:21:57.855Z,12.56
2018-02-25T13:24:28.588Z,12.88
2018-02-25T13:26:59.097Z,12.62
2018-02-25T13:29:29.886Z,11.85
2018-02-25T13:32:01.162Z,12.57
2018-02-25T13:34:31.627Z,13.05
2018-02-25T13:37:02.326Z,13.70
2018-02-25T13:39:32.976Z,14.68
2018-02-25T13:42:02.824Z,12.48
2018-02-25T13:44:34.040Z,22.25
2018-02-25T13:47:04.643Z,12.35
2018-02-25T13:49:35.564Z,16.08
2018-02-25T13:52:06.426Z,14.20
2018-02-25T13:54:37.393Z,13.80
2018-02-25T13:57:08.381Z,13.35
2018-02-25T13:59:39.946Z,13.18
2018-02-25T14:02:11.552Z,12.10
2018-02-25T14:04:41.201Z,11.90
2018-02-25T14:07:11.589Z,13.27
2018-02-25T14:09:42.209Z,13.64
2018-02-25T14:12:12.628Z,15.73
2018-02-25T14:14:43.553Z,13.82
2018-02-25T14:17:16.033Z,18.40
2018-02-25T14:19:45.553Z,19.03
2018-02-25T14:22:16.168Z,13.93
2018-02-25T14:24:45.884Z,22.20
2018-02-25T14:27:16.506Z,19.30
2018-02-25T14:29:47.440Z,18.50
2018-02-25T14:32:18.629Z,14.73
2018-02-25T14:34:50.528Z,15.85
2018-02-25T14:37:21.796Z,13.40
2018-02-25T14:39:52.136Z,12.62
2018-02-25T14:42:23.774Z,13.74
2018-02-25T14:44:54.376Z,12.64
2018-02-25T14:47:23.865Z,13.10
2018-02-25T14:49:54.187Z,13.40
2018-02-25T14:52:25.664Z,14.56
2018-02-25T14:54:56.381Z,13.77
2018-02-25T14:57:31.864Z,12.79
2018-02-25T15:00:04.475Z,13.05
2018-02-25T15:02:34.664Z,13.52
2018-02-25T15:05:03.935Z,13.22
2018-02-25T15:07:33.791Z,12.23
2018-02-25T15:10:04.215Z,12.76
2018-02-25T15:12:35.066Z,15.78
2018-02-25T15:15:04.979Z,16.75
2018-02-25T15:17:35.279Z,30.74
2018-02-25T15:20:05.933Z,14.84
2018-02-25T15:22:36.596Z,12.52
2018-02-25T15:25:08.930Z,18.40
2018-02-25T15:27:39.187Z,21.84
2018-02-25T15:30:09.658Z,15.50
2018-02-25T15:32:40.505Z,19.25
2018-02-25T15:35:11.472Z,16.20
2018-02-25T15:37:42.420Z,15.75
2018-02-25T15:40:13.353Z,19.80
2018-02-25T15:42:43.917Z,23.76
2018-02-25T15:45:14.185Z,21.60
2018-02-25T15:47:44.559Z,18.00
2018-02-25T15:50:15.192Z,18.12
2018-02-25T15:52:46.426Z,17.90
2018-02-25T15:55:16.892Z,17.70
2018-02-25T15:57:47.741Z,17.50
2018-02-25T16:00:18.851Z,21.02
2018-02-25T16:02:49.498Z,19.90
2018-02-25T16:05:22.046Z,21.74
2018-02-25T16:07:52.266Z,21.18
2018-02-25T16:10:22.853Z,19.80
2018-02-25T16:12:53.584Z,15.52
2018-02-25T16:15:26.557Z,17.16
2018-02-25T16:17:56.443Z,16.50
2018-02-25T16:20:26.233Z,16.37
2018-02-25T16:22:55.899Z,17.98
2018-02-25T16:25:28.506Z,19.02
2018-02-25T16:27:58.119Z,20.15
2018-02-25T16:30:28.921Z,22.33
2018-02-25T16:32:59.483Z,27.20
2018-02-25T16:35:30.430Z,25.75
2018-02-25T16:38:02.403Z,21.52
2018-02-25T16:40:33.544Z,22.04
2018-02-25T16:43:04.083Z,22.18
2018-02-25T16:45:34.543Z,22.50
2018-02-25T16:48:05.162Z,24.42
2018-02-25T16:50:35.859Z,23.20
2018-02-25T16:53:06.364Z,34.17
2018-02-25T16:55:38.993Z,25.34
2018-02-25T16:58:09.760Z,25.27
2018-02-25T17:00:42.123Z,23.34
2018-02-25T17:03:11.505Z,23.26
2018-02-25T17:05:42.287Z,17.37
2018-02-25T17:08:12.109Z,17.35
2018-02-25T17:10:42.616Z,20.17
2018-02-25T17:13:14.106Z,22.34
2018-02-25T17:15:44.259Z,25.58
2018-02-25T17:18:15.192Z,22.87
2018-02-25T17:20:45.815Z,23.15
2018-02-25T17:23:16.868Z,21.62
2018-02-25T17:25:47.620Z,18.92
2018-02-25T17:28:19.080Z,19.60
2018-02-25T17:30:51.343Z,19.67
2018-02-25T17:33:22.958Z,19.74
2018-02-25T17:35:52.176Z,17.83
2018-02-25T17:38:22.903Z,19.50
2018-02-25T17:40:56.497Z,21.35
2018-02-25T17:43:25.860Z,20.77
2018-02-25T17:45:56.439Z,21.40
2018-02-25T17:48:26.097Z,21.00
2018-02-25T17:50:55.872Z,27.90
2018-02-25T17:53:26.627Z,32.90
2018-02-25T17:55:57.702Z,45.90
2018-02-25T17:58:32.288Z,42.60
2018-02-25T18:01:03.034Z,37.43
2018-02-25T18:03:32.288Z,34.05
2018-02-25T18:06:04.238Z,34.85
2018-02-25T18:08:33.485Z,30.93
2018-02-25T18:11:06.292Z,27.93
2018-02-25T18:13:36.052Z,25.03
2018-02-25T18:16:05.942Z,25.27
2018-02-25T18:18:36.172Z,25.30
2018-02-25T18:21:07.453Z,26.42
2018-02-25T18:23:38.140Z,33.00
2018-02-25T18:26:08.047Z,66.28
2018-02-25T18:28:38.692Z,54.03
2018-02-25T18:31:10.266Z,37.35
2018-02-25T18:33:40.671Z,28.48
2018-02-25T18:36:11.481Z,27.80
2018-02-25T18:38:42.438Z,28.77
2018-02-25T18:41:12.985Z,27.90
2018-02-25T18:43:44.029Z,35.40
2018-02-25T18:46:14.630Z,44.60
2018-02-25T18:48:45.602Z,37.83
2018-02-25T18:51:16.505Z,44.25
2018-02-25T18:53:47.454Z,36.75
2018-02-25T18:56:20.184Z,33.24
2018-02-25T18:58:51.074Z,30.70
2018-02-25T19:01:20.381Z,30.73
2018-02-25T19:03:50.041Z,31.02
2018-02-25T19:06:23.337Z,30.90
2018-02-25T19:08:53.760Z,28.02
2018-02-25T19:11:23.340Z,30.64
2018-02-25T19:13:53.906Z,35.78
2018-02-25T19:16:25.346Z,35.08
2018-02-25T19:18:54.568Z,28.27
2018-02-25T19:21:24.875Z,29.90
2018-02-25T19:23:55.819Z,50.22
2018-02-25T19:26:27.210Z,62.94
2018-02-25T19:28:57.936Z,37.15
2018-02-25T19:31:29.255Z,30.70
2018-02-25T19:34:00.138Z,44.17
2018-02-25T19:36:36.401Z,60.65
2018-02-25T19:39:10.489Z,57.23
2018-02-25T19:41:45.229Z,34.77
2018-02-25T19:44:14.918Z,28.08
2018-02-25T19:46:44.100Z,17.67
2018-02-25T19:49:14.296Z,20.12
2018-02-25T19:51:43.943Z,71.10
2018-02-25T19:54:13.111Z,60.50
2018-02-25T19:56:42.948Z,39.10
2018-02-25T19:59:12.786Z,30.34
2018-02-25T20:01:43.384Z,27.08
2018-02-25T20:04:14.144Z,37.98
2018-02-25T20:06:45.375Z,36.15
2018-02-25T20:09:16.043Z,40.14
2018-02-25T20:11:47.000Z,39.70
2018-02-25T20:14:18.569Z,33.33
2018-02-25T20:16:49.239Z,27.26
2018-02-25T20:19:18.899Z,28.25
2018-02-25T20:21:50.349Z,22.87
2018-02-25T20:24:20.820Z,21.64
2018-02-25T20:26:52.913Z,20.36
2018-02-25T20:29:25.841Z,17.86
2018-02-25T20:31:55.824Z,23.33
2018-02-25T20:34:24.988Z,26.37
2018-02-25T20:36:55.941Z,26.02
2018-02-25T20:39:26.937Z,24.15
2018-02-25T20:41:57.839Z,22.00
2018-02-25T20:44:31.024Z,22.00
2018-02-25T20:47:01.981Z,22.25
2018-02-25T20:49:33.711Z,20.43
2018-02-25T20:52:02.856Z,23.23
2018-02-25T20:54:33.204Z,23.13
2018-02-25T20:57:02.952Z,21.92
2018-02-25T20:59:33.590Z,20.33
2018-02-25T21:02:04.543Z,21.65
2018-02-25T21:04:35.513Z,20.65
2018-02-25T21:07:06.178Z,21.52
2018-02-25T21:09:36.733Z,20.20
2018-02-25T21:12:08.483Z,21.90
2018-02-25T21:14:39.832Z,18.88
2018-02-25T21:17:11.030Z,21.23
2018-02-25T21:19:40.899Z,20.95
2018-02-25T21:22:11.672Z,20.14
2018-02-25T21:24:44.061Z,18.87
2018-02-25T21:27:13.272Z,20.67
2018-02-25T21:29:43.360Z,24.52
2018-02-25T21:32:15.283Z,28.16
2018-02-25T21:34:47.020Z,25.76
2018-02-25T21:37:18.156Z,24.30
2018-02-25T21:39:48.751Z,25.30
2018-02-25T21:42:19.279Z,28.26
2018-02-25T21:44:48.988Z,32.53
2018-02-25T21:47:20.188Z,34.75
2018-02-25T21:49:50.635Z,36.08
2018-02-25T21:52:23.696Z,43.78
2018-02-25T21:54:58.667Z,47.80
2018-02-25T21:57:36.499Z,42.17
2018-02-25T22:00:11.122Z,36.70
2018-02-25T22:02:45.896Z,30.50
2018-02-25T22:05:14.708Z,30.40
2018-02-25T22:07:44.286Z,33.67
2018-02-25T22:10:13.542Z,36.67
2018-02-25T22:12:43.848Z,32.45
2018-02-25T22:15:13.700Z,30.77
2018-02-25T22:17:42.851Z,33.08
2018-02-25T22:20:12.007Z,38.88
2018-02-25T22:22:41.141Z,30.23
2018-02-25T22:25:10.527Z,26.00
2018-02-25T22:27:40.165Z,30.12
2018-02-25T22:30:09.335Z,33.00
2018-02-25T22:32:38.628Z,39.78
2018-02-25T22:35:08.002Z,30.87
2018-02-25T22:37:38.363Z,23.80
2018-02-25T22:40:07.661Z,22.52
2018-02-25T22:42:40.136Z,23.82
2018-02-25T22:45:09.345Z,24.30
2018-02-25T22:47:39.990Z,27.58
2018-02-25T22:50:11.076Z,28.87
2018-02-25T22:52:42.255Z,26.35
2018-02-25T22:55:15.041Z,32.33
2018-02-25T22:57:44.243Z,27.85
2018-02-25T23:00:21.693Z,26.26
2018-02-25T23:02:51.000Z,28.17
2018-02-25T23:05:20.183Z,28.20
2018-02-25T23:07:49.651Z,30.10
2018-02-25T23:10:19.463Z,28.42
2018-02-25T23:12:50.125Z,29.63
2018-02-25T23:15:21.710Z,36.40
2018-02-25T23:17:53.044Z,35.38
2018-02-25T23:20:24.259Z,33.40
2018-02-25T23:22:54.766Z,32.82
2018-02-25T23:25:26.629Z,34.80
2018-02-25T23:27:55.835Z,30.25
2018-02-25T23:30:25.708Z,25.73
2018-02-25T23:32:57.084Z,25.26
2018-02-25T23:35:28.327Z,22.40
2018-02-25T23:37:58.598Z,22.40
2018-02-25T23:40:27.820Z,20.27
2018-02-25T23:43:00.050Z,21.20
2018-02-25T23:45:31.304Z,22.52
2018-02-25T23:48:02.388Z,24.35
2018-02-25T23:50:35.948Z,27.26
2018-02-25T23:53:05.196Z,28.55
2018-02-25T23:55:34.956Z,24.27
2018-02-25T23:58:06.447Z,24.80
